Time;durP1;ratioP1;P1;durP2;ratioP2;P2;SDS_P1;SDS_P2;PMS_P1;PMS_P2;Temp;Humidity;BMP_temperature;BMP_pressure;BME280_temperature;BME280_humidity;BME280_pressure;Samples;Min_cycle;Max_cycle;Signal;HPM_P1;HPM_P2
2023/07/25 00:00:08;;;;;;;7.47;4.38;;;;;;;11.56;100.00;100696.38;5013440;28;20018;-80
2023/07/25 00:02:34;;;;;;;7.13;4.72;;;;;;;11.54;100.00;100693.09;4996057;28;20033;-80
2023/07/25 00:04:59;;;;;;;10.38;4.68;;;;;;;11.53;100.00;100699.19;5013453;28;20022;-80
2023/07/25 00:07:24;;;;;;;8.40;4.95;;;;;;;11.31;100.00;100671.41;5013543;28;20038;-79
2023/07/25 00:09:50;;;;;;;9.82;5.13;;;;;;;11.50;100.00;100701.97;4995865;28;20181;-80
2023/07/25 00:12:15;;;;;;;7.50;4.47;;;;;;;11.47;100.00;100705.59;5013357;28;20030;-82
2023/07/25 00:14:41;;;;;;;7.97;4.80;;;;;;;11.40;100.00;100691.44;5013551;28;20053;-82
2023/07/25 00:17:06;;;;;;;8.18;5.18;;;;;;;11.16;100.00;100654.34;5013378;28;20037;-80
2023/07/25 00:19:31;;;;;;;9.15;5.10;;;;;;;11.40;100.00;100700.94;5013371;28;20104;-81
2023/07/25 00:21:57;;;;;;;8.25;4.68;;;;;;;11.36;100.00;100699.50;5013180;28;20050;-81
2023/07/25 00:24:22;;;;;;;8.52;5.65;;;;;;;11.34;100.00;100698.78;5013116;28;20100;-82
2023/07/25 00:26:47;;;;;;;7.50;5.13;;;;;;;11.30;100.00;100697.34;5013367;28;20065;-82
2023/07/25 00:29:13;;;;;;;7.85;5.10;;;;;;;11.12;100.00;100671.81;5013169;28;20500;-81
2023/07/25 00:31:38;;;;;;;8.75;5.82;;;;;;;11.23;100.00;100696.94;5013219;28;20037;-82
2023/07/25 00:34:04;;;;;;;8.50;5.57;;;;;;;11.18;100.00;100694.66;5013272;28;20030;-82
2023/07/25 00:36:29;;;;;;;9.65;5.82;;;;;;;11.13;100.00;100695.91;5012999;28;20061;-81
2023/07/25 00:38:55;;;;;;;7.20;5.30;;;;;;;11.11;100.00;100698.59;5013154;28;20029;-81
2023/07/25 00:41:20;;;;;;;9.75;5.35;;;;;;;11.01;100.00;100691.53;4995458;28;20482;-79
2023/07/25 00:43:46;;;;;;;9.75;5.13;;;;;;;11.06;100.00;100698.06;5012953;28;20490;-80
2023/07/25 00:46:11;;;;;;;10.25;5.65;;;;;;;10.94;100.00;100683.38;5012889;28;20037;-79
2023/07/25 00:48:37;;;;;;;9.52;5.53;;;;;;;10.94;100.00;100688.56;5013106;28;20022;-81
2023/07/25 00:51:04;;;;;;;10.18;5.78;;;;;;;10.94;100.00;100693.72;5012845;28;20030;-82
2023/07/25 00:53:30;;;;;;;8.88;5.45;;;;;;;10.80;100.00;100668.78;5012776;28;20470;-82
2023/07/25 00:55:55;;;;;;;10.45;5.65;;;;;;;11.00;100.00;100695.88;5012896;28;20080;-79
2023/07/25 00:58:21;;;;;;;13.93;5.93;;;;;;;11.01;100.00;100692.41;5012656;28;20060;-79
2023/07/25 01:00:46;;;;;;;10.85;5.65;;;;;;;10.97;100.00;100684.94;5012716;28;20374;-79
2023/07/25 01:03:12;;;;;;;9.65;5.85;;;;;;;11.02;100.00;100691.47;5012844;28;20029;-81
2023/07/25 01:05:41;;;;;;;11.82;6.30;;;;;;;11.03;100.00;100692.28;5012807;28;20030;-82
2023/07/25 01:08:07;;;;;;;9.88;6.45;;;;;;;10.97;100.00;100696.09;5012724;28;20030;-79
2023/07/25 01:10:34;;;;;;;9.82;6.53;;;;;;;10.97;100.00;100693.50;5013005;28;20033;-79
2023/07/25 01:13:02;;;;;;;10.00;6.50;;;;;;;10.75;100.00;100659.72;5015729;28;20513;-82
2023/07/25 01:15:28;;;;;;;10.00;6.90;;;;;;;10.83;100.00;100670.38;5016746;28;20068;-82
2023/07/25 01:17:54;;;;;;;12.32;6.65;;;;;;;10.90;100.00;100685.34;5016623;28;20033;-82
2023/07/25 01:20:20;;;;;;;10.35;6.45;;;;;;;10.67;100.00;100659.38;5016600;28;20022;-80
2023/07/25 01:22:47;;;;;;;10.45;6.43;;;;;;;10.82;100.00;100679.03;5016467;28;20030;-82
2023/07/25 01:25:13;;;;;;;8.43;5.30;;;;;;;10.79;100.00;100681.81;5016428;28;20065;-80
2023/07/25 01:27:39;;;;;;;8.60;5.10;;;;;;;10.73;100.00;100680.47;4998493;28;20503;-79
2023/07/25 01:30:05;;;;;;;8.40;4.80;;;;;;;10.67;100.00;100678.28;5016272;28;20173;-82
2023/07/25 01:32:30;;;;;;;9.35;5.30;;;;;;;10.62;100.00;100681.19;5016240;28;20120;-81
2023/07/25 01:34:56;;;;;;;7.70;5.45;;;;;;;10.35;100.00;100644.25;5016454;28;20085;-80
2023/07/25 01:37:21;;;;;;;9.20;5.68;;;;;;;10.62;100.00;100682.94;5016200;28;20033;-80
2023/07/25 01:39:46;;;;;;;11.15;5.70;;;;;;;10.23;100.00;100622.66;5016201;28;20034;-81
2023/07/25 01:42:12;;;;;;;8.65;6.50;;;;;;;10.62;100.00;100677.78;4998278;28;20034;-82
2023/07/25 01:44:37;;;;;;;9.93;6.60;;;;;;;10.58;100.00;100678.88;5016092;28;20037;-82
2023/07/25 01:47:03;;;;;;;8.23;6.18;;;;;;;10.44;100.00;100650.56;5016018;28;20140;-81
2023/07/25 01:49:28;;;;;;;9.90;6.32;;;;;;;10.56;100.00;100673.81;5016394;28;20026;-81
2023/07/25 01:51:53;;;;;;;9.68;6.75;;;;;;;10.37;100.00;100634.66;5015715;28;20037;-80
2023/07/25 01:54:19;;;;;;;10.68;6.70;;;;;;;10.50;100.00;100653.56;5016015;28;20059;-80
2023/07/25 01:56:44;;;;;;;7.93;5.80;;;;;;;10.56;100.00;100663.50;5016143;28;20018;-81
2023/07/25 01:59:10;;;;;;;10.60;5.72;;;;;;;10.49;100.00;100656.25;5015780;28;20053;-82
2023/07/25 02:01:36;;;;;;;12.07;5.60;;;;;;;10.45;100.00;100647.88;5016060;28;20041;-82
2023/07/25 02:04:01;;;;;;;8.05;5.78;;;;;;;10.34;100.00;100638.25;5015885;28;20029;-81
2023/07/25 02:06:26;;;;;;;7.28;5.30;;;;;;;10.44;100.00;100659.16;5015956;28;20374;-81
2023/07/25 02:08:52;;;;;;;10.73;5.88;;;;;;;10.33;100.00;100646.94;5015812;28;20060;-82
2023/07/25 02:11:17;;;;;;;8.85;5.70;;;;;;;10.38;100.00;100654.38;5015735;28;20053;-81
2023/07/25 02:13:42;;;;;;;8.02;5.50;;;;;;;10.29;100.00;100642.88;5015656;28;20504;-81
2023/07/25 02:16:08;;;;;;;9.77;5.47;;;;;;;10.33;100.00;100659.00;5018041;28;20037;-82
2023/07/25 02:18:33;;;;;;;7.65;5.22;;;;;;;10.34;100.00;100647.75;5018408;28;20054;-81
2023/07/25 02:20:59;;;;;;;8.40;5.88;;;;;;;10.36;100.00;100660.56;5016457;28;20092;-82
2023/07/25 02:23:24;;;;;;;8.43;5.90;;;;;;;10.32;100.00;100655.59;5015551;28;20544;-82
2023/07/25 02:25:49;;;;;;;8.15;6.32;;;;;;;10.29;100.00;100658.38;5015076;28;20065;-82
2023/07/25 02:28:15;;;;;;;9.55;6.65;;;;;;;10.19;100.00;100649.53;5015644;28;20025;-82
2023/07/25 02:30:40;;;;;;;8.00;5.63;;;;;;;10.14;100.00;100640.44;5015189;28;20029;-82
2023/07/25 02:33:05;;;;;;;9.30;6.53;;;;;;;10.22;100.00;100657.09;5015549;28;20033;-82
2023/07/25 02:35:31;;;;;;;9.85;6.45;;;;;;;10.20;100.00;100655.50;5015263;28;20030;-80
2023/07/25 02:37:56;;;;;;;9.70;6.95;;;;;;;10.06;100.00;100643.50;4997948;28;20481;-82
2023/07/25 02:40:21;;;;;;;9.43;6.25;;;;;;;9.93;100.00;100617.66;5015232;28;20499;-81
2023/07/25 02:42:47;;;;;;;7.95;6.05;;;;;;;10.02;100.00;100642.84;4997261;28;20506;-82
2023/07/25 02:45:12;;;;;;;8.13;6.18;;;;;;;10.11;100.00;100651.75;5015128;28;20045;-82
2023/07/25 02:47:37;;;;;;;10.48;6.18;;;;;;;9.94;100.00;100634.81;5015079;28;20509;-82
2023/07/25 02:50:03;;;;;;;8.50;6.30;;;;;;;10.03;100.00;100649.69;5014998;28;20053;-81
2023/07/25 02:52:28;;;;;;;9.30;6.55;;;;;;;10.00;100.00;100654.22;5015154;28;20022;-82
2023/07/25 02:54:54;;;;;;;9.15;6.18;;;;;;;9.96;100.00;100653.59;5014840;28;20033;-82
2023/07/25 02:57:19;;;;;;;8.80;6.22;;;;;;;9.95;100.00;100648.53;5014651;28;20128;-82
2023/07/25 02:59:44;;;;;;;14.95;6.32;;;;;;;9.91;100.00;100657.38;5014578;28;20439;-81
2023/07/25 03:02:10;;;;;;;8.10;5.75;;;;;;;9.63;100.00;100604.09;5014541;28;20022;-82
2023/07/25 03:04:36;;;;;;;8.85;5.28;;;;;;;9.69;100.00;100630.34;5014647;28;20050;-81
2023/07/25 03:07:01;;;;;;;8.13;5.22;;;;;;;9.65;100.00;100621.16;5014528;28;20061;-79
2023/07/25 03:09:26;;;;;;;8.98;5.80;;;;;;;9.82;100.00;100658.75;5014765;28;20125;-81
2023/07/25 03:11:52;;;;;;;7.10;5.10;;;;;;;9.81;100.00;100662.25;5014417;28;20355;-81
2023/07/25 03:14:17;;;;;;;7.90;5.47;;;;;;;9.80;100.00;100663.19;5014439;28;20030;-81
2023/07/25 03:16:42;;;;;;;7.35;5.53;;;;;;;9.80;100.00;100654.63;5014696;28;20104;-81
2023/07/25 03:19:08;;;;;;;9.30;6.38;;;;;;;9.60;100.00;100624.94;5014457;28;20084;-81
2023/07/25 03:21:33;;;;;;;8.35;5.97;;;;;;;9.81;100.00;100664.84;5014343;28;20109;-81
2023/07/25 03:23:58;;;;;;;10.23;6.72;;;;;;;9.81;100.00;100654.53;5014246;28;20074;-81
2023/07/25 03:26:24;;;;;;;10.10;6.38;;;;;;;9.86;100.00;100660.25;5014091;28;20113;-81
2023/07/25 03:28:49;;;;;;;12.13;7.07;;;;;;;9.93;100.00;100658.94;5014151;28;20017;-80
2023/07/25 03:31:14;;;;;;;9.95;6.72;;;;;;;9.92;100.00;100641.78;5014057;28;20026;-81
2023/07/25 03:33:40;;;;;;;10.02;7.10;;;;;;;9.95;100.00;100641.63;5014187;28;20105;-82
2023/07/25 03:36:07;;;;;;;11.10;7.80;;;;;;;10.00;100.00;100643.88;5013636;28;20381;-82
2023/07/25 03:38:32;;;;;;;10.48;7.22;;;;;;;10.06;100.00;100646.91;5013998;28;20018;-81
2023/07/25 03:40:58;;;;;;;8.75;6.32;;;;;;;10.05;100.00;100640.09;5014155;28;20030;-80
2023/07/25 03:43:24;;;;;;;9.82;6.20;;;;;;;9.88;100.00;100616.28;5013930;28;20109;-81
2023/07/25 03:45:49;;;;;;;9.50;5.72;;;;;;;9.92;100.00;100621.16;4995892;28;20046;-81
2023/07/25 03:48:14;;;;;;;8.30;5.82;;;;;;;10.01;100.00;100646.38;5013809;28;20137;-81
2023/07/25 03:50:40;;;;;;;8.38;6.00;;;;;;;10.02;100.00;100636.88;5013722;28;20377;-80
2023/07/25 03:53:05;;;;;;;12.80;6.35;;;;;;;9.80;100.00;100593.56;5013730;28;20030;-81
2023/07/25 03:55:31;;;;;;;9.38;5.75;;;;;;;10.13;100.00;100637.03;5013889;28;20461;-82
2023/07/25 03:57:56;;;;;;;8.88;6.20;;;;;;;10.02;100.00;100622.22;5013687;28;20030;-82
2023/07/25 04:00:22;;;;;;;9.82;5.78;;;;;;;10.16;100.00;100654.06;5013625;28;20033;-82
2023/07/25 04:02:47;;;;;;;8.23;5.68;;;;;;;10.06;100.00;100628.84;5013529;28;20060;-82
2023/07/25 04:05:13;;;;;;;9.73;6.00;;;;;;;10.07;100.00;100633.09;5014032;28;20037;-82
2023/07/25 04:07:38;;;;;;;10.23;5.85;;;;;;;10.14;100.00;100648.19;5013316;28;20084;-81
2023/07/25 04:10:04;;;;;;;10.23;5.97;;;;;;;10.14;100.00;100648.19;5013372;28;20029;-82
2023/07/25 04:12:29;;;;;;;10.73;6.18;;;;;;;10.05;100.00;100637.53;5013621;28;20109;-82
2023/07/25 04:14:54;;;;;;;9.88;6.95;;;;;;;10.02;100.00;100632.53;5013474;28;20030;-80
2023/07/25 04:17:20;;;;;;;10.50;7.05;;;;;;;9.99;100.00;100627.59;5013141;28;20026;-82
2023/07/25 04:19:45;;;;;;;9.70;6.15;;;;;;;10.20;100.00;100655.50;5013222;28;20022;-81
2023/07/25 04:22:11;;;;;;;8.80;6.43;;;;;;;10.19;100.00;100641.78;5013064;28;20029;-82
2023/07/25 04:24:36;;;;;;;9.43;6.25;;;;;;;10.18;100.00;100624.66;5013073;28;20049;-81
2023/07/25 04:27:02;;;;;;;10.18;6.75;;;;;;;10.35;100.00;100649.41;5013204;28;20021;-81
2023/07/25 04:29:27;;;;;;;9.85;7.07;;;;;;;10.01;100.00;100599.09;5013393;28;20026;-81
2023/07/25 04:31:52;;;;;;;11.40;6.88;;;;;;;10.39;100.00;100648.28;5012573;28;20485;-80
2023/07/25 04:34:18;;;;;;;11.52;7.78;;;;;;;10.44;100.00;100653.97;5013120;28;20108;-83
2023/07/25 04:36:44;;;;;;;12.38;7.90;;;;;;;10.27;100.00;100616.34;5013007;28;20025;-78
2023/07/25 04:39:10;;;;;;;11.73;7.22;;;;;;;10.59;100.00;100652.97;5013290;28;20065;-81
2023/07/25 04:41:35;;;;;;;11.57;7.47;;;;;;;10.67;100.00;100659.38;5013115;28;20108;-80
2023/07/25 04:44:01;;;;;;;13.40;7.78;;;;;;;10.72;100.00;100649.59;5013063;28;20030;-81
2023/07/25 04:46:28;;;;;;;11.43;7.18;;;;;;;10.69;100.00;100642.03;4994016;28;20042;-81
2023/07/25 04:48:54;;;;;;;13.25;7.40;;;;;;;10.72;100.00;100649.59;5012691;28;20030;-80
2023/07/25 04:51:19;;;;;;;10.07;7.60;;;;;;;10.80;100.00;100652.47;5013191;28;20092;-80
2023/07/25 04:53:44;;;;;;;10.10;7.32;;;;;;;10.87;100.00;100648.56;5012697;28;20045;-79
2023/07/25 04:56:10;;;;;;;10.52;7.45;;;;;;;11.08;100.00;100662.59;5012765;28;20541;-80
2023/07/25 04:58:38;;;;;;;11.32;7.47;;;;;;;11.13;100.00;100649.38;5012856;28;20033;-80
2023/07/25 05:01:03;;;;;;;9.77;7.18;;;;;;;11.41;100.00;100663.84;5012877;28;20084;-81
2023/07/25 05:03:29;;;;;;;11.93;7.40;;;;;;;11.62;100.00;100664.09;5012621;28;20026;-80
2023/07/25 05:05:55;;;;;;;10.85;7.43;;;;;;;11.82;100.00;100654.97;4994822;28;20058;-80
2023/07/25 05:08:20;;;;;;;11.27;7.85;;;;;;;12.04;100.00;100655.09;5012755;28;20041;-77
2023/07/25 05:10:45;;;;;;;12.63;7.80;;;;;;;12.22;100.00;100642.59;5012753;28;20022;-80
2023/07/25 05:13:11;;;;;;;11.00;8.13;;;;;;;12.73;100.00;100663.00;5012688;28;20022;-79
2023/07/25 05:15:38;;;;;;;10.75;7.40;;;;;;;13.88;100.00;100650.63;5012940;28;20103;-80
2023/07/25 05:18:03;;;;;;;11.45;6.57;;;;;;;15.16;100.00;100649.66;4995040;28;20026;-78
2023/07/25 05:20:30;;;;;;;10.80;6.00;;;;;;;15.91;100.00;100661.38;5012972;28;20485;-79
2023/07/25 05:22:55;;;;;;;9.20;5.65;;;;;;;15.68;98.10;100640.81;5012630;28;20052;-80
2023/07/25 05:25:20;;;;;;;11.48;5.22;;;;;;;16.09;96.57;100651.97;5012540;28;20042;-78
2023/07/25 05:27:46;;;;;;;9.35;5.05;;;;;;;16.06;95.51;100658.28;5012521;28;20025;-79
2023/07/25 05:30:11;;;;;;;12.10;5.47;;;;;;;15.76;94.75;100634.94;5012445;28;20074;-79
2023/07/25 05:32:38;;;;;;;10.45;5.40;;;;;;;16.43;94.54;100657.59;5012163;28;20073;-79
2023/07/25 05:35:04;;;;;;;9.38;4.80;;;;;;;16.68;91.32;100658.81;4994432;28;20482;-78
2023/07/25 05:37:34;;;;;;;8.52;4.68;;;;;;;16.60;92.21;100674.28;5012637;28;20037;-80
2023/07/25 05:40:00;;;;;;;12.13;4.88;;;;;;;16.22;92.86;100636.03;5012604;28;20033;-80
2023/07/25 05:42:25;;;;;;;8.55;4.88;;;;;;;16.45;92.22;100636.59;5012589;28;20421;-80
2023/07/25 05:44:50;;;;;;;12.23;4.45;;;;;;;17.82;87.40;100669.94;5012354;28;20386;-80
2023/07/25 05:47:16;;;;;;;9.82;4.32;;;;;;;18.43;82.66;100663.97;5012435;28;20026;-81
2023/07/25 05:49:41;;;;;;;11.82;4.18;;;;;;;18.80;78.14;100669.03;5011968;28;20026;-80
2023/07/25 05:52:06;;;;;;;8.38;4.28;;;;;;;18.74;79.31;100680.91;5012259;28;20037;-80
2023/07/25 05:54:32;;;;;;;10.02;3.95;;;;;;;18.32;79.47;100678.91;4994784;28;20500;-80
2023/07/25 05:56:57;;;;;;;6.63;3.42;;;;;;;18.16;80.92;100683.16;5012446;28;20591;-81
2023/07/25 05:59:23;;;;;;;7.82;3.35;;;;;;;18.25;81.33;100690.94;5015698;28;20490;-81
2023/07/25 06:01:48;;;;;;;7.00;3.83;;;;;;;18.26;79.69;100663.00;5015876;28;20076;-81
2023/07/25 06:04:15;;;;;;;8.73;3.42;;;;;;;18.38;78.51;100690.56;5015495;28;20049;-81
2023/07/25 06:06:40;;;;;;;7.88;2.97;;;;;;;18.27;80.87;100672.47;5015845;28;20042;-82
2023/07/25 06:09:05;;;;;;;7.47;3.40;;;;;;;18.42;79.59;100678.84;5015708;28;20084;-80
2023/07/25 06:11:31;;;;;;;6.47;3.35;;;;;;;18.04;79.30;100664.28;5015892;28;20466;-83
2023/07/25 06:13:56;;;;;;;6.97;3.10;;;;;;;17.74;82.46;100668.88;5015387;28;20033;-82
2023/07/25 06:16:22;;;;;;;9.38;3.47;;;;;;;17.54;84.94;100663.88;5015716;28;20048;-82
2023/07/25 06:18:47;;;;;;;6.72;3.17;;;;;;;17.51;85.02;100683.28;4997955;28;20057;-82
2023/07/25 06:21:18;;;;;;;6.70;2.88;;;;;;;17.76;87.71;100681.78;5015388;28;20105;-83
2023/07/25 06:23:44;;;;;;;7.25;2.97;;;;;;;18.48;81.48;100651.25;5015214;28;20441;-84
2023/07/25 06:26:09;;;;;;;6.60;3.00;;;;;;;18.96;80.97;100653.41;4983351;28;20041;-80
2023/07/25 06:28:35;;;;;;;5.20;2.85;;;;;;;19.19;78.64;100590.88;4995077;28;20034;-82
2023/07/25 06:31:02;;;;;;;7.80;3.10;;;;;;;20.12;75.76;100675.44;4978088;28;20070;-82
2023/07/25 06:33:27;;;;;;;8.70;2.80;;;;;;;20.42;71.36;100634.63;4995443;28;20035;-83
2023/07/25 06:35:53;;;;;;;8.60;2.53;;;;;;;20.31;70.01;100693.50;4995231;28;20034;-82
2023/07/25 06:38:18;;;;;;;6.38;2.33;;;;;;;19.22;74.14;100637.66;4996525;28;20022;-85
2023/07/25 06:40:43;;;;;;;6.93;2.75;;;;;;;18.55;76.13;100610.44;4978176;28;20026;-84
2023/07/25 06:43:09;;;;;;;7.85;2.78;;;;;;;18.26;75.95;100554.03;4977905;28;20045;-84
2023/07/25 06:45:34;;;;;;;6.90;2.50;;;;;;;19.74;73.25;100642.78;4995512;28;20042;-83
2023/07/25 06:47:59;;;;;;;6.22;2.30;;;;;;;21.80;66.95;100701.72;4995604;28;20041;-82
2023/07/25 06:50:28;;;;;;;7.20;2.05;;;;;;;23.64;62.37;100694.38;4995164;28;20089;-83
2023/07/25 06:52:55;;;;;;;7.28;2.20;;;;;;;25.15;55.36;100680.91;4995318;28;20030;-83
2023/07/25 06:55:24;;;;;;;5.30;1.80;;;;;;;25.52;51.48;100575.72;4995256;28;20030;-83
2023/07/25 06:57:54;;;;;;;7.35;1.92;;;;;;;25.49;51.26;100642.22;5061748;23;20050;-82
2023/07/25 07:00:21;;;;;;;6.88;1.98;;;;;;;24.71;52.14;100654.81;5013608;28;20092;-83
2023/07/25 07:02:46;;;;;;;7.95;1.77;;;;;;;25.16;52.53;100691.28;4997277;28;20470;-83
2023/07/25 07:05:12;;;;;;;5.95;1.90;;;;;;;25.44;47.04;100656.84;5014218;28;20036;-83
2023/07/25 07:07:40;;;;;;;9.60;2.13;;;;;;;25.08;49.89;100677.44;5014657;28;20096;-83
2023/07/25 07:10:05;;;;;;;5.43;1.98;;;;;;;24.70;50.53;100690.97;5013702;28;20029;-80
2023/07/25 07:12:31;;;;;;;6.53;1.77;;;;;;;24.46;51.72;100659.69;5015538;28;20083;-83
2023/07/25 07:14:56;;;;;;;5.60;1.83;;;;;;;24.93;51.59;100687.25;5014687;28;20470;-83
2023/07/25 07:17:21;;;;;;;6.20;1.83;;;;;;;24.72;49.46;100691.59;5014392;28;20026;-83
2023/07/25 07:19:47;;;;;;;5.90;1.50;;;;;;;25.44;50.47;100675.34;5014151;28;20036;-83
2023/07/25 07:22:12;;;;;;;7.13;1.90;;;;;;;25.80;46.29;100692.78;5014313;28;20029;-82
2023/07/25 07:24:37;;;;;;;8.63;2.33;;;;;;;26.28;45.18;100687.38;5014216;28;20068;-83
2023/07/25 07:27:13;;;;;;;9.52;2.05;;;;;;;26.74;43.62;100689.22;5014297;28;20084;-80
2023/07/25 07:29:39;;;;;;;4.22;1.25;;;;;;;26.82;44.87;100662.50;5013407;28;20500;-81
2023/07/25 07:32:10;;;;;;;5.65;1.30;;;;;;;27.21;41.75;100697.91;4997742;28;20030;-82
2023/07/25 07:34:36;;;;;;;5.85;1.67;;;;;;;26.07;43.67;100684.91;4980128;28;20033;-79
2023/07/25 07:37:01;;;;;;;4.95;1.33;;;;;;;24.15;45.97;100629.16;5014152;28;20373;-82
2023/07/25 07:39:29;;;;;;;4.90;1.40;;;;;;;23.43;49.65;100703.03;4996526;28;20032;-88
2023/07/25 07:41:55;;;;;;;4.57;1.55;;;;;;;22.78;50.77;100701.88;5014077;28;20021;-83
2023/07/25 07:44:20;;;;;;;5.95;1.40;;;;;;;22.33;52.60;100705.38;5013807;28;20057;-81
2023/07/25 07:46:45;;;;;;;5.22;1.30;;;;;;;21.08;53.29;100653.75;5013845;28;20386;-80
2023/07/25 07:49:11;;;;;;;4.30;1.40;;;;;;;20.82;56.76;100712.53;5013751;28;20501;-80
2023/07/25 07:51:36;;;;;;;6.97;1.30;;;;;;;20.59;57.76;100704.50;5013508;28;20098;-83
2023/07/25 07:54:11;;;;;;;4.85;1.15;;;;;;;19.88;57.73;100638.72;4996232;28;20311;-82
2023/07/25 07:56:39;;;;;;;8.07;1.58;;;;;;;19.99;59.35;100719.66;5013340;28;20054;-82
2023/07/25 07:59:06;;;;;;;5.57;1.20;;;;;;;19.54;57.98;100663.16;5013694;28;20092;-82
2023/07/25 08:01:31;;;;;;;6.47;1.27;;;;;;;19.79;59.73;100706.00;5014016;28;20053;-82
2023/07/25 08:04:00;;;;;;;6.70;1.27;;;;;;;19.85;59.07;100705.38;5013240;28;20050;-82
2023/07/25 08:06:25;;;;;;;6.30;1.40;;;;;;;19.02;60.38;100582.13;5011649;28;20060;-82
2023/07/25 08:09:01;;;;;;;5.68;1.40;;;;;;;20.21;59.13;100716.44;5013778;28;20054;-82
2023/07/25 08:11:34;;;;;;;8.18;1.30;;;;;;;19.21;57.89;100560.13;4978972;28;20049;-87
2023/07/25 08:14:00;;;;;;;5.07;1.40;;;;;;;19.97;59.65;100735.56;5013560;28;20029;-82
2023/07/25 08:16:25;;;;;;;5.88;1.35;;;;;;;19.40;58.97;100648.88;5013464;28;20022;-82
2023/07/25 08:18:50;;;;;;;7.03;1.42;;;;;;;20.09;59.96;100737.88;5013185;28;20532;-82
2023/07/25 08:21:21;;;;;;;6.80;1.30;;;;;;;20.04;59.25;100739.16;5013202;28;20389;-82
2023/07/25 08:23:55;;;;;;;7.72;1.20;;;;;;;19.81;60.67;100656.88;5012774;28;20389;-80
2023/07/25 08:26:21;;;;;;;6.25;1.75;;;;;;;20.41;59.43;100721.38;5013304;28;20489;-80
2023/07/25 08:28:46;;;;;;;8.90;1.30;;;;;;;20.16;57.60;100661.03;5013254;28;20026;-80
2023/07/25 08:31:18;;;;;;;5.03;1.10;;;;;;;20.33;57.89;100646.94;5012918;28;20112;-82
2023/07/25 08:33:46;;;;;;;7.30;1.20;;;;;;;19.74;57.96;100577.28;5013006;28;20053;-82
2023/07/25 08:36:11;;;;;;;6.47;1.30;;;;;;;20.20;54.48;100745.44;5012979;28;20478;-81
2023/07/25 08:38:37;;;;;;;4.80;1.25;;;;;;;19.22;59.14;100644.72;5012977;28;20084;-81
2023/07/25 08:41:11;;;;;;;5.80;1.50;;;;;;;19.86;61.96;100750.72;5013019;28;20033;-81
2023/07/25 08:43:39;;;;;;;6.00;1.27;;;;;;;19.87;59.39;100753.22;5013149;28;20058;-77
2023/07/25 08:46:07;;;;;;;7.32;1.50;;;;;;;19.84;57.96;100750.91;5012829;28;20108;-80
2023/07/25 08:48:37;;;;;;;8.50;1.60;;;;;;;19.68;59.33;100722.03;5013010;28;20050;-79
2023/07/25 08:51:06;;;;;;;6.03;1.20;;;;;;;19.57;57.76;100681.22;5012733;28;20065;-80
2023/07/25 08:53:32;;;;;;;7.18;1.45;;;;;;;19.12;58.12;100618.66;5012790;28;20034;-82
2023/07/25 08:55:58;;;;;;;6.00;1.33;;;;;;;20.19;61.79;100759.53;5012922;28;20030;-82
2023/07/25 08:58:24;;;;;;;4.03;1.20;;;;;;;20.43;56.92;100762.22;5012675;28;20391;-80
2023/07/25 09:00:50;;;;;;;7.65;1.20;;;;;;;20.63;57.11;100739.09;5012746;28;20161;-82
2023/07/25 09:03:16;;;;;;;4.10;1.15;;;;;;;20.58;58.33;100754.53;5012621;28;20126;-81
2023/07/25 09:05:42;;;;;;;5.68;1.45;;;;;;;20.41;58.20;100740.53;5011178;28;20399;-82
2023/07/25 09:08:07;;;;;;;3.38;1.20;;;;;;;20.34;55.82;100763.16;5012643;28;20022;-79
2023/07/25 09:10:33;;;;;;;6.07;1.27;;;;;;;20.00;55.99;100769.31;5012901;28;20037;-77
2023/07/25 09:12:58;;;;;;;3.42;1.05;;;;;;;19.79;56.00;100771.53;5012670;28;20026;-84
2023/07/25 09:15:24;;;;;;;5.97;1.13;;;;;;;19.83;57.10;100769.41;5012412;28;20080;-79
2023/07/25 09:17:58;;;;;;;6.00;1.20;;;;;;;19.57;54.74;100719.69;5012567;28;20554;-85
2023/07/25 09:20:24;;;;;;;4.72;1.20;;;;;;;19.92;59.63;100739.63;4996509;28;20026;-82
2023/07/25 09:22:49;;;;;;;5.30;1.27;;;;;;;20.23;59.49;100766.06;4992076;28;20029;-83
2023/07/25 09:25:15;;;;;;;5.20;1.40;;;;;;;20.11;58.32;100741.97;4992995;28;20053;-80
2023/07/25 09:27:56;;;;;;;4.38;1.15;;;;;;;20.18;55.59;100763.94;4992827;28;20065;-81
2023/07/25 09:30:45;;;;;;;4.53;1.33;;;;;;;19.59;56.42;100729.03;4992769;28;20105;-82
2023/07/25 09:33:25;;;;;;;5.82;1.40;;;;;;;19.99;61.15;100772.91;4993996;28;20077;-83
2023/07/25 09:35:52;;;;;;;4.72;1.10;;;;;;;19.99;52.16;100769.47;4996571;28;20057;-79
2023/07/25 09:38:18;;;;;;;7.93;1.20;;;;;;;19.81;53.11;100759.09;4996495;28;20054;-82
2023/07/25 09:43:35;;;;;;;5.47;1.33;;;;;;;19.99;55.11;100690.84;4988961;23;20073;-83
2023/07/25 09:46:04;;;;;;;3.83;1.02;;;;;;;20.56;51.75;100753.88;4996580;28;20039;-82
2023/07/25 09:48:31;;;;;;;5.97;1.33;;;;;;;20.48;54.28;100730.25;4996516;28;20037;-81
2023/07/25 09:50:57;;;;;;;5.07;1.13;;;;;;;20.70;53.79;100774.22;4996472;28;20034;-80
2023/07/25 09:53:22;;;;;;;5.53;1.33;;;;;;;20.46;53.34;100776.81;4996198;28;20038;-82
2023/07/25 09:55:48;;;;;;;5.80;1.20;;;;;;;20.20;55.06;100748.88;4996493;28;20034;-81
2023/07/25 09:58:13;;;;;;;4.82;1.08;;;;;;;20.44;55.23;100778.78;4996372;28;20034;-81
2023/07/25 10:00:42;;;;;;;5.40;1.20;;;;;;;20.34;55.16;100742.97;5011594;28;20064;-81
2023/07/25 10:03:11;;;;;;;3.92;1.30;;;;;;;20.40;55.56;100772.19;4996267;28;20035;-80
2023/07/25 10:05:42;;;;;;;4.63;1.00;;;;;;;20.07;55.40;100730.19;4996035;28;20425;-80
2023/07/25 10:08:08;;;;;;;3.75;1.15;;;;;;;20.01;57.22;100749.16;4978559;28;20382;-83
2023/07/25 10:10:37;;;;;;;3.90;1.20;;;;;;;20.05;55.95;100774.06;4996492;28;20029;-81
2023/07/25 10:13:02;;;;;;;4.65;1.38;;;;;;;19.97;54.43;100777.50;4994715;28;20406;-81
2023/07/25 10:15:29;;;;;;;5.32;1.50;;;;;;;19.26;53.48;100680.06;4978601;28;20035;-81
2023/07/25 10:18:25;;;;;;;5.40;1.15;;;;;;;19.12;55.25;100656.13;4996095;28;20026;-81
2023/07/25 10:20:56;;;;;;;5.53;1.13;;;;;;;19.02;56.17;100631.84;4954882;29;20395;-80
2023/07/25 10:23:43;;;;;;;6.72;1.75;;;;;;;19.38;57.06;100665.72;4954987;28;20035;-81
2023/07/25 10:26:13;;;;;;;5.13;1.10;;;;;;;20.03;53.84;100768.16;4954765;29;20035;-81
2023/07/25 10:28:39;;;;;;;5.22;1.08;;;;;;;19.82;54.65;100737.13;4955073;29;20391;-81
2023/07/25 10:31:06;;;;;;;5.28;1.20;;;;;;;20.02;54.29;100771.75;4954866;29;20038;-80
2023/07/25 10:33:37;;;;;;;4.78;1.00;;;;;;;19.08;56.79;100615.53;4938859;29;20046;-81
2023/07/25 10:36:02;;;;;;;3.28;1.10;;;;;;;19.20;51.04;100637.84;4954785;29;20027;-81
2023/07/25 10:38:33;;;;;;;3.33;1.08;;;;;;;20.17;55.16;100769.38;4954542;29;20039;-79
2023/07/25 10:41:10;;;;;;;4.00;1.05;;;;;;;20.00;51.13;100721.31;4938589;29;20042;-79
2023/07/25 10:43:44;;;;;;;4.75;1.23;;;;;;;20.68;52.15;100775.38;4953889;28;20050;-80
2023/07/25 10:46:25;;;;;;;4.70;1.33;;;;;;;20.07;51.49;100701.34;4954109;29;20035;-81
2023/07/25 10:51:51;;;;;;;4.13;1.23;;;;;;;20.07;54.02;100719.69;5020415;23;20045;-81
2023/07/25 10:54:29;;;;;;;3.55;1.10;;;;;;;20.34;53.24;100763.16;4997447;28;20054;-82
2023/07/25 10:57:29;;;;;;;3.30;0.90;;;;;;;20.15;54.63;100719.69;4996907;28;20037;-80
2023/07/25 10:59:59;;;;;;;5.60;1.52;;;;;;;19.98;52.97;100702.31;5016596;28;20060;-80
2023/07/25 11:02:41;;;;;;;5.35;1.00;;;;;;;20.29;52.80;100766.25;5014808;28;20101;-79
2023/07/25 11:05:20;;;;;;;2.53;0.80;;;;;;;20.20;53.11;100763.78;5014754;28;20105;-81
2023/07/25 11:07:52;;;;;;;3.53;1.15;;;;;;;20.21;50.44;100758.38;5008937;23;20502;-80
2023/07/25 11:10:25;;;;;;;4.68;1.25;;;;;;;19.92;56.30;100668.84;4995130;28;20488;-80
2023/07/25 11:13:11;;;;;;;3.88;1.20;;;;;;;20.43;52.03;100759.59;4994992;28;20073;-81
2023/07/25 11:15:37;;;;;;;3.33;0.93;;;;;;;19.76;49.35;100748.25;4994817;28;20038;-81
2023/07/25 11:18:08;;;;;;;2.55;1.08;;;;;;;19.04;54.95;100655.25;4995203;28;20069;-81
2023/07/25 11:20:36;;;;;;;;;;;;;;;19.84;53.95;100769.25;4995508;28;20027;-81
2023/07/25 11:23:02;;;;;;;2.58;0.90;;;;;;;19.68;54.12;100746.44;4994607;28;20277;-81
2023/07/25 11:25:30;;;;;;;4.60;1.10;;;;;;;19.99;52.75;100772.09;4994801;28;20026;-81